Hlavní strana
METAR-TAF:

METAR-TAF

Letiště :

El Borma, Tunisko

zeměpisná šířka: 31-41N, zeměpisná délka: 009-10E, výška: 258 m

Aktuální stav počasí

Zpráva byla vytvořena před 3 hodinami a 42 minutami, v 16:00 UTC
Jihovýchodní vítr 3 kt
Teplota 21°C
Vlhkost vzduchu 28%
Tlak 1021 hPa
Viditelnost 10 km a více
Žádná oblačnost pod 1500 m, nevyskytují se cumulonimby.

METAR: DTTR 051600Z 14003KT CAVOK 21/02 Q1021

Čas: 20:42 (19:42 UTC)

Předpověď počasí

Zpráva byla vytvořena před 7 hodinami a 42 minutami, v 12:00 UTC
Předpověď platná od 05 v 13 UTC do 05 v 22 UTC
Východojihovýchodní vítr 5 kt
Viditelnost 10 km a více
Žádná oblačnost pod 1500 m, nevyskytují se cumulonimby.

TAF: DTTR 051200Z 0513/0522 12005KT CAVOK

Stav a předpovědi počasí z více než 4 000 letišť (zprávy METAR a TAF).

Červené a žluté tečky na mapě představují dostupné meteorologické stanice.

Když kurzor umístíte na tečku, zobrazí se název stanice.

Pak kliknutím zobrazíte stav a předpověď počasí.

Chcete-li změnit mapu, kliknutím na zelené tlačítko se znaménkem +mapu přiblížíte, kliknutím na zelené tlačítko se znaménkem – mapu oddálíte a kliknutím na zelené šipky přejdete na sousední mapy.


METAR-TAF: